Weather at Tumasek Heliport

Public forecast

Using degrees Celsius for public forecast. Weather courtesy of forecast.io.

Closest aviation weather report (METAR) to Tumasek Heliport

Closest report is Brunei International Airport, 4.0 nm (7.5 km) N. Retrieved 2022/05/20 06:30 UTC (20 minutes ago):

WBSB 200630Z 24009KT 9999 FEW016 FEW017CB BKN300 31/24 Q1008 NOSIG

Closest aviation forecast (TAF) to Tumasek Heliport

Closest forecast is Brunei International Airport, 4.0 nm (7.5 km) N. Retrieved 2022/05/20 06:15 UTC (35 minutes ago):

TAF WBSB 200450Z 2006/2112 28010KT 9999 SCT014 FEW015CB TEMPO 2008/2010 7000 SHRA BECMG 2012/2014 20003KT FEW014